Time;durP1;ratioP1;P1;durP2;ratioP2;P2;SDS_P1;SDS_P2;PMS_P1;PMS_P2;Temp;Humidity;BMP_temperature;BMP_pressure;BME280_temperature;BME280_humidity;BME280_pressure;Samples;Min_cycle;Max_cycle;Signal;HPM_P1;HPM_P2
2022/12/05 00:00:59;;;;;;;30.85;15.02;;;3.70;99.90;;;;;;5053210;28;20064;-80
2022/12/05 00:03:25;;;;;;;35.17;17.00;;;3.70;99.90;;;;;;5052999;28;20045;-79
2022/12/05 00:05:51;;;;;;;37.50;18.70;;;3.70;99.90;;;;;;5037814;28;20586;-79
2022/12/05 00:08:17;;;;;;;42.92;20.13;;;3.80;99.90;;;;;;5047625;28;20041;-78
2022/12/05 00:10:43;;;;;;;40.63;19.20;;;3.80;99.90;;;;;;5025968;28;20029;-78
2022/12/05 00:13:09;;;;;;;39.08;19.30;;;3.90;99.90;;;;;;5034252;28;20099;-79
2022/12/05 00:15:37;;;;;;;44.22;19.17;;;3.90;99.90;;;;;;5034278;28;20032;-79
2022/12/05 00:18:03;;;;;;;49.60;21.45;;;4.00;99.90;;;;;;5035657;28;20048;-79
2022/12/05 00:20:29;;;;;;;45.95;20.67;;;4.00;99.90;;;;;;5034571;28;20073;-78
2022/12/05 00:22:55;;;;;;;46.25;20.30;;;4.00;99.90;;;;;;5043241;28;20033;-78
2022/12/05 00:25:20;;;;;;;48.75;22.17;;;4.10;99.90;;;;;;5037984;28;20462;-78
2022/12/05 00:27:46;;;;;;;51.92;20.98;;;4.10;99.90;;;;;;5025725;28;20171;-79
2022/12/05 00:30:12;;;;;;;51.60;21.80;;;4.10;99.90;;;;;;5034362;28;20029;-78
2022/12/05 00:32:38;;;;;;;49.45;21.13;;;4.10;99.90;;;;;;5032822;28;20037;-78
2022/12/05 00:35:04;;;;;;;47.70;21.38;;;4.10;99.90;;;;;;5041084;28;20029;-79
2022/12/05 00:37:30;;;;;;;44.75;20.83;;;4.10;99.90;;;;;;5022570;28;20144;-78
2022/12/05 00:39:56;;;;;;;45.95;21.38;;;4.10;99.90;;;;;;5013703;28;20120;-79
2022/12/05 00:42:22;;;;;;;45.78;21.42;;;4.10;99.90;;;;;;5012583;28;20420;-77
2022/12/05 00:44:50;;;;;;;49.20;21.73;;;4.10;99.90;;;;;;5014332;28;20072;-78
2022/12/05 00:47:16;;;;;;;47.72;21.05;;;4.10;99.90;;;;;;5015234;28;20037;-77
2022/12/05 00:49:42;;;;;;;46.85;21.80;;;4.20;99.90;;;;;;5011437;28;20089;-77
2022/12/05 00:52:08;;;;;;;43.28;20.50;;;4.10;99.90;;;;;;5013878;28;20048;-78
2022/12/05 00:54:34;;;;;;;48.20;22.63;;;4.10;99.90;;;;;;5014671;28;20415;-78
2022/12/05 00:56:59;;;;;;;44.30;21.80;;;4.20;99.90;;;;;;5042781;28;20029;-77
2022/12/05 00:59:25;;;;;;;48.13;22.60;;;4.20;99.90;;;;;;5044261;28;20392;-78
2022/12/05 01:01:51;;;;;;;45.42;20.13;;;4.20;99.90;;;;;;5026877;28;20060;-77
2022/12/05 01:04:22;;;;;;;46.80;21.40;;;4.20;99.90;;;;;;5014576;28;20033;-77
2022/12/05 01:06:49;;;;;;;43.50;20.77;;;4.20;99.90;;;;;;5045016;28;20044;-78
2022/12/05 01:09:19;;;;;;;42.78;20.05;;;4.10;99.90;;;;;;5038897;28;20444;-77
2022/12/05 01:11:45;;;;;;;38.00;18.58;;;4.10;99.90;;;;;;5013784;28;20033;-78
2022/12/05 01:14:13;;;;;;;45.63;20.23;;;4.10;99.90;;;;;;5018814;28;20064;-77
2022/12/05 01:16:40;;;;;;;41.05;19.27;;;4.10;99.90;;;;;;5028722;28;20079;-77
2022/12/05 01:19:27;;;;;;;43.83;21.30;;;4.10;99.90;;;;;;5041828;28;20041;-77
2022/12/05 01:21:53;;;;;;;41.67;20.30;;;4.20;99.90;;;;;;5037443;28;20037;-77
2022/12/05 01:24:24;;;;;;;43.08;20.15;;;4.20;99.90;;;;;;5039094;28;20555;-77
2022/12/05 01:26:50;;;;;;;41.10;19.55;;;4.20;99.90;;;;;;5048649;28;20467;-78
2022/12/05 01:29:18;;;;;;;49.45;21.25;;;4.20;99.90;;;;;;5014331;28;20115;-78
2022/12/05 01:31:44;;;;;;;41.60;20.35;;;4.20;99.90;;;;;;5031647;28;20503;-77
2022/12/05 01:34:12;;;;;;;41.17;19.63;;;4.20;99.90;;;;;;5030942;28;20071;-77
2022/12/05 01:36:39;;;;;;;45.35;21.20;;;4.20;99.90;;;;;;5014602;28;20524;-78
2022/12/05 01:39:06;;;;;;;42.38;19.55;;;4.20;99.90;;;;;;5030935;28;20100;-77
2022/12/05 01:41:38;;;;;;;39.25;19.58;;;4.20;99.90;;;;;;5048335;28;20397;-77
2022/12/05 01:44:26;;;;;;;41.97;19.58;;;4.20;99.90;;;;;;5040752;28;20068;-78
2022/12/05 01:46:53;;;;;;;37.55;18.20;;;4.20;99.90;;;;;;5029557;28;20040;-79
2022/12/05 01:49:29;;;;;;;42.70;20.55;;;4.10;99.90;;;;;;5029803;28;20040;-78
2022/12/05 01:52:00;;;;;;;41.85;19.95;;;4.20;99.90;;;;;;5044491;28;20037;-76
2022/12/05 01:54:26;;;;;;;41.75;19.83;;;4.20;99.90;;;;;;5014237;28;20131;-77
2022/12/05 01:56:57;;;;;;;41.67;19.70;;;4.20;99.90;;;;;;5045080;28;20044;-77
2022/12/05 01:59:24;;;;;;;36.58;18.08;;;4.20;99.90;;;;;;5048401;28;20481;-77
2022/12/05 02:01:50;;;;;;;38.38;19.23;;;4.10;99.90;;;;;;5005393;28;20136;-78
2022/12/05 02:04:16;;;;;;;39.60;18.20;;;4.20;99.90;;;;;;5021096;28;20109;-78
2022/12/05 02:06:42;;;;;;;39.33;19.27;;;4.10;99.90;;;;;;5020594;28;20501;-77
2022/12/05 02:09:08;;;;;;;40.97;18.38;;;4.10;99.90;;;;;;5022429;28;20516;-78
2022/12/05 02:11:37;;;;;;;41.10;18.92;;;4.10;99.90;;;;;;5051786;28;20025;-79
2022/12/05 02:14:03;;;;;;;38.35;18.52;;;4.10;99.90;;;;;;5051866;28;20083;-77
2022/12/05 02:16:50;;;;;;;36.17;17.55;;;4.10;99.90;;;;;;5041923;28;20483;-78
2022/12/05 02:19:41;;;;;;;41.42;19.48;;;4.10;99.90;;;;;;5030348;28;20497;-77
2022/12/05 02:22:26;;;;;;;35.67;18.75;;;4.10;99.90;;;;;;5048464;28;20033;-78
2022/12/05 02:25:10;;;;;;;39.75;17.92;;;4.20;99.90;;;;;;5030950;28;20021;-78
2022/12/05 02:27:42;;;;;;;40.95;18.17;;;4.20;99.90;;;;;;5019198;28;20033;-77
2022/12/05 02:30:10;;;;;;;38.17;17.83;;;4.10;99.90;;;;;;5051573;28;20060;-78
2022/12/05 02:32:57;;;;;;;39.58;18.02;;;4.10;99.90;;;;;;5037354;28;20029;-78
2022/12/05 02:35:34;;;;;;;44.28;18.70;;;4.10;99.90;;;;;;5033807;28;20025;-78
2022/12/05 02:38:10;;;;;;;42.63;19.00;;;4.20;99.90;;;;;;5039139;28;20036;-78
2022/12/05 02:40:50;;;;;;;;;;;4.10;99.90;;;;;;5034400;28;20025;-78
2022/12/05 02:43:21;;;;;;;38.80;18.17;;;4.10;99.90;;;;;;5048195;28;19912;-78
2022/12/05 02:45:52;;;;;;;38.70;17.98;;;4.10;99.90;;;;;;5023256;28;20653;-78
2022/12/05 02:48:20;;;;;;;39.65;18.35;;;4.20;99.90;;;;;;5037970;28;20064;-78
2022/12/05 02:50:47;;;;;;;42.47;18.70;;;4.10;99.90;;;;;;5047275;28;20021;-78
2022/12/05 02:53:15;;;;;;;41.28;19.27;;;4.20;99.90;;;;;;5019328;28;20034;-78
2022/12/05 02:55:43;;;;;;;37.03;17.83;;;4.10;99.90;;;;;;5018876;28;20029;-77
2022/12/05 02:58:15;;;;;;;38.28;18.80;;;4.20;99.90;;;;;;5010995;28;20047;-78
2022/12/05 03:00:46;;;;;;;40.60;18.52;;;4.10;99.90;;;;;;5033213;28;20028;-79
2022/12/05 03:03:17;;;;;;;40.35;18.35;;;4.20;99.90;;;;;;5033092;28;20025;-78
2022/12/05 03:05:50;;;;;;;44.20;19.38;;;4.10;99.90;;;;;;5032739;28;20039;-78
2022/12/05 03:08:20;;;;;;;39.33;18.00;;;4.10;99.90;;;;;;5046856;28;20472;-79
2022/12/05 03:10:48;;;;;;;42.42;18.35;;;4.10;99.90;;;;;;5014809;28;20572;-79
2022/12/05 03:13:20;;;;;;;37.97;17.58;;;4.10;99.90;;;;;;5050709;28;20029;-78
2022/12/05 03:15:57;;;;;;;36.92;18.33;;;4.20;99.90;;;;;;5020358;28;20021;-78
2022/12/05 03:18:29;;;;;;;36.58;17.63;;;4.20;99.90;;;;;;5051336;28;20048;-79
2022/12/05 03:21:21;;;;;;;36.50;16.63;;;4.10;99.90;;;;;;5037342;28;20022;-78
2022/12/05 03:23:54;;;;;;;32.63;16.83;;;4.00;99.90;;;;;;5049457;28;20064;-79
2022/12/05 03:26:43;;;;;;;39.28;16.92;;;4.10;99.90;;;;;;5031844;28;20045;-78
2022/12/05 03:29:29;;;;;;;35.90;16.58;;;4.10;99.90;;;;;;5030455;28;20473;-78
2022/12/05 03:32:16;;;;;;;31.13;15.77;;;4.10;99.90;;;;;;5030326;28;20116;-78
2022/12/05 03:34:48;;;;;;;30.23;14.77;;;4.00;99.90;;;;;;5040121;28;20478;-78
2022/12/05 03:37:39;;;;;;;33.83;16.02;;;4.10;99.90;;;;;;5047747;28;20024;-77
2022/12/05 03:40:13;;;;;;;36.00;16.75;;;4.10;99.90;;;;;;5016553;28;20073;-77
2022/12/05 03:42:49;;;;;;;31.45;15.60;;;4.10;99.90;;;;;;5032533;28;20032;-78
2022/12/05 03:45:21;;;;;;;33.20;17.15;;;4.10;99.90;;;;;;5032409;28;20600;-77
2022/12/05 03:47:55;;;;;;;29.98;14.32;;;4.10;99.90;;;;;;5050394;28;20067;-77
2022/12/05 03:50:27;;;;;;;31.48;16.65;;;4.10;99.90;;;;;;5015984;28;20477;-78
2022/12/05 03:53:08;;;;;;;32.65;15.95;;;4.10;99.90;;;;;;5037913;28;20112;-77
2022/12/05 03:55:38;;;;;;;33.58;15.38;;;4.10;99.90;;;;;;5032568;28;20045;-78
2022/12/05 03:58:14;;;;;;;33.22;16.70;;;4.10;99.90;;;;;;5038308;28;20040;-78
2022/12/05 04:00:44;;;;;;;31.90;16.30;;;4.10;99.90;;;;;;5032750;28;20086;-78
2022/12/05 04:03:18;;;;;;;30.55;16.85;;;4.10;99.90;;;;;;5044180;28;20120;-78
2022/12/05 04:05:48;;;;;;;33.72;16.30;;;4.10;99.90;;;;;;5032014;28;20087;-77
2022/12/05 04:08:35;;;;;;;36.50;17.10;;;4.10;99.90;;;;;;5041532;28;20490;-78
2022/12/05 04:11:10;;;;;;;33.40;16.25;;;4.00;99.90;;;;;;5019611;28;20115;-78
2022/12/05 04:13:45;;;;;;;31.90;15.88;;;4.00;99.90;;;;;;5054672;28;20090;-79
2022/12/05 04:19:26;;;;;;;31.88;15.13;;;4.00;99.90;;;;;;5043383;28;19909;-78
2022/12/05 04:21:55;;;;;;;31.30;15.90;;;4.00;99.90;;;;;;5043847;28;20107;-78
2022/12/05 04:27:11;;;;;;;31.77;15.75;;;4.00;99.90;;;;;;5031412;28;20393;-78
2022/12/05 04:29:58;;;;;;;30.52;14.45;;;4.00;99.90;;;;;;5030897;28;20024;-78
2022/12/05 04:32:28;;;;;;;23.75;13.43;;;4.00;99.90;;;;;;5031478;28;20071;-78
2022/12/05 04:34:58;;;;;;;26.95;14.88;;;4.00;99.90;;;;;;4999451;28;20057;-78
2022/12/05 04:37:27;;;;;;;31.33;15.18;;;4.00;99.90;;;;;;5030203;28;20063;-77
2022/12/05 04:39:56;;;;;;;32.65;14.88;;;4.10;99.90;;;;;;5022601;28;20449;-78
2022/12/05 04:42:26;;;;;;;30.90;14.80;;;4.00;99.90;;;;;;5047673;28;20401;-78
2022/12/05 04:45:00;;;;;;;30.52;15.73;;;4.00;99.90;;;;;;5013301;28;20091;-78
2022/12/05 04:47:31;;;;;;;30.65;15.20;;;4.10;99.90;;;;;;5014496;28;20059;-77
2022/12/05 04:49:59;;;;;;;31.83;15.48;;;4.10;99.90;;;;;;5022120;28;20037;-77
2022/12/05 04:52:27;;;;;;;30.52;14.63;;;4.10;99.90;;;;;;5030204;28;20090;-78
2022/12/05 04:55:13;;;;;;;30.40;14.32;;;4.10;99.90;;;;;;5019036;28;20038;-78
2022/12/05 04:57:52;;;;;;;27.27;13.65;;;4.10;99.90;;;;;;5001105;28;20078;-78
2022/12/05 05:00:18;;;;;;;28.63;13.75;;;4.10;99.90;;;;;;5048596;28;20065;-78
2022/12/05 05:02:50;;;;;;;28.48;14.35;;;4.00;99.90;;;;;;5027885;28;20037;-78
2022/12/05 05:05:18;;;;;;;30.80;15.00;;;4.00;99.90;;;;;;5040756;28;20523;-78
2022/12/05 05:07:47;;;;;;;29.02;13.45;;;4.00;99.90;;;;;;5039867;28;20033;-77
2022/12/05 05:10:18;;;;;;;27.77;14.40;;;4.10;99.90;;;;;;5028034;28;20060;-77
2022/12/05 05:12:44;;;;;;;31.67;14.60;;;4.00;99.90;;;;;;5013288;28;20029;-78
2022/12/05 05:15:10;;;;;;;28.55;13.95;;;4.00;99.90;;;;;;5016480;28;20037;-79
2022/12/05 05:17:36;;;;;;;29.23;14.90;;;4.10;99.90;;;;;;5033457;28;20051;-78
2022/12/05 05:22:48;;;;;;;26.23;13.50;;;4.10;99.90;;;;;;5049034;28;20033;-79
2022/12/05 05:25:13;;;;;;;25.00;13.35;;;4.10;99.90;;;;;;5053382;28;20068;-78
2022/12/05 05:27:39;;;;;;;25.60;13.70;;;4.10;99.90;;;;;;5034467;28;20086;-79
2022/12/05 05:30:06;;;;;;;28.73;14.43;;;4.10;99.90;;;;;;5023183;28;20034;-79
2022/12/05 05:32:32;;;;;;;26.42;13.15;;;4.00;99.90;;;;;;5020780;28;20036;-79
2022/12/05 05:34:58;;;;;;;25.35;13.25;;;4.00;99.90;;;;;;5045231;28;20033;-79
2022/12/05 05:37:23;;;;;;;25.83;12.73;;;4.00;99.90;;;;;;5017020;28;20083;-79
2022/12/05 05:39:49;;;;;;;23.08;12.05;;;4.00;99.90;;;;;;5048466;28;20197;-79
2022/12/05 05:42:15;;;;;;;22.98;13.18;;;3.90;99.90;;;;;;5028830;28;20057;-79
2022/12/05 05:44:41;;;;;;;21.83;11.82;;;3.90;99.90;;;;;;5036136;28;20478;-79
2022/12/05 05:47:06;;;;;;;24.67;11.93;;;3.90;99.90;;;;;;5045914;28;20050;-79
2022/12/05 05:49:32;;;;;;;27.52;12.55;;;3.90;99.90;;;;;;5011757;28;20406;-78
2022/12/05 05:51:58;;;;;;;23.25;11.27;;;3.90;99.90;;;;;;5050123;28;20033;-78
2022/12/05 05:54:24;;;;;;;24.27;11.45;;;3.90;99.90;;;;;;5050234;28;20120;-79
2022/12/05 05:56:49;;;;;;;29.42;12.00;;;3.90;99.90;;;;;;5025290;28;20033;-79
2022/12/05 05:59:15;;;;;;;31.52;11.07;;;3.90;99.90;;;;;;5028880;28;20038;-79
2022/12/05 06:01:41;;;;;;;76.85;12.18;;;3.90;99.90;;;;;;5036982;28;20661;-78
2022/12/05 06:04:07;;;;;;;21.60;11.15;;;3.90;99.90;;;;;;5030693;28;20050;-78
2022/12/05 06:06:35;;;;;;;82.28;13.73;;;4.00;99.90;;;;;;5034581;28;20452;-78
2022/12/05 06:09:01;;;;;;;36.60;9.18;;;4.00;99.90;;;;;;5032374;28;20041;-78
2022/12/05 06:11:27;;;;;;;238.07;16.42;;;4.00;99.90;;;;;;5050596;28;20067;-78
2022/12/05 06:13:55;;;;;;;155.02;11.90;;;4.00;99.90;;;;;;5050347;28;20079;-78
2022/12/05 06:16:21;;;;;;;104.88;10.73;;;3.90;99.90;;;;;;5033539;28;20486;-78
2022/12/05 06:18:48;;;;;;;19.58;10.52;;;4.00;99.90;;;;;;5016285;28;20048;-78
2022/12/05 06:21:13;;;;;;;157.38;13.57;;;3.90;99.90;;;;;;5033418;28;20550;-78
2022/12/05 06:23:39;;;;;;;27.83;11.30;;;4.00;99.90;;;;;;5051487;28;20118;-78
2022/12/05 06:26:09;;;;;;;19.15;10.60;;;4.00;99.90;;;;;;5037202;28;20128;-78
2022/12/05 06:28:36;;;;;;;185.05;15.48;;;4.00;99.90;;;;;;5040362;28;20128;-78
2022/12/05 06:31:11;;;;;;;22.75;11.25;;;3.90;99.90;;;;;;5043776;28;20044;-78
2022/12/05 06:33:37;;;;;;;21.85;11.77;;;3.90;99.90;;;;;;5032844;28;20274;-78
2022/12/05 06:36:14;;;;;;;21.70;12.10;;;3.90;99.90;;;;;;5050696;28;20032;-78
2022/12/05 06:38:40;;;;;;;20.00;10.55;;;3.90;99.90;;;;;;5030689;28;20060;-79
2022/12/05 06:41:08;;;;;;;22.35;11.32;;;3.90;99.90;;;;;;5038019;28;20049;-78
2022/12/05 06:43:34;;;;;;;28.05;11.38;;;3.80;99.90;;;;;;5052374;28;20070;-78
2022/12/05 06:46:07;;;;;;;23.75;11.80;;;3.90;99.90;;;;;;5048947;28;20047;-79
2022/12/05 06:48:33;;;;;;;23.83;11.60;;;3.80;99.90;;;;;;5034221;28;20029;-78
2022/12/05 06:50:59;;;;;;;21.70;10.57;;;3.80;99.90;;;;;;5033644;28;20067;-79
2022/12/05 06:53:26;;;;;;;30.60;10.75;;;3.80;99.90;;;;;;5034380;28;20548;-78
2022/12/05 06:55:56;;;;;;;21.70;11.43;;;3.80;99.90;;;;;;5036142;28;20032;-78
2022/12/05 06:58:22;;;;;;;21.20;11.05;;;3.80;99.90;;;;;;5034167;28;20047;-79
2022/12/05 07:03:32;;;;;;;23.05;11.55;;;3.70;99.90;;;;;;5037953;28;20059;-79
2022/12/05 07:06:02;;;;;;;23.90;11.98;;;3.60;99.90;;;;;;5018947;28;20037;-78
2022/12/05 07:08:28;;;;;;;23.52;11.30;;;3.60;99.90;;;;;;5019522;28;20029;-78
2022/12/05 07:10:54;;;;;;;21.70;11.32;;;3.60;99.90;;;;;;5036565;28;20029;-79
2022/12/05 07:13:21;;;;;;;19.77;11.10;;;3.50;99.90;;;;;;5049116;28;20716;-79
2022/12/05 07:15:48;;;;;;;38.03;12.52;;;3.50;99.90;;;;;;5032118;28;20509;-79
2022/12/05 07:18:15;;;;;;;45.15;11.95;;;3.60;99.90;;;;;;5034351;28;20253;-79
2022/12/05 07:20:41;;;;;;;59.20;12.60;;;3.60;99.90;;;;;;5050479;28;20032;-78
2022/12/05 07:23:08;;;;;;;30.10;11.95;;;3.60;99.90;;;;;;5034720;28;20561;-78
2022/12/05 07:25:37;;;;;;;23.63;12.20;;;3.50;99.90;;;;;;5040499;28;20214;-79
2022/12/05 07:28:03;;;;;;;29.45;12.02;;;3.50;99.90;;;;;;5046513;28;20513;-79
2022/12/05 07:30:29;;;;;;;31.48;12.65;;;3.50;99.90;;;;;;5017845;28;20029;-78
2022/12/05 07:32:55;;;;;;;35.63;11.23;;;3.50;99.90;;;;;;5034735;28;20029;-79
2022/12/05 07:35:21;;;;;;;23.27;11.05;;;3.50;99.90;;;;;;5015065;28;20112;-78
2022/12/05 07:37:46;;;;;;;20.40;11.15;;;3.50;99.90;;;;;;5032624;28;20029;-79
2022/12/05 07:40:13;;;;;;;23.00;11.13;;;3.50;99.90;;;;;;5036642;28;20051;-78
2022/12/05 07:42:38;;;;;;;24.98;11.00;;;3.50;99.90;;;;;;5026179;28;20584;-79
2022/12/05 07:45:05;;;;;;;24.38;10.88;;;3.50;99.90;;;;;;5033019;28;20059;-78
2022/12/05 07:47:31;;;;;;;24.27;11.40;;;3.50;99.90;;;;;;5034568;28;20037;-79
2022/12/05 07:49:56;;;;;;;28.80;11.63;;;3.50;99.90;;;;;;5048078;28;20040;-79
2022/12/05 07:52:23;;;;;;;24.02;11.48;;;3.50;99.90;;;;;;5017643;28;20037;-79
2022/12/05 07:54:48;;;;;;;19.85;9.98;;;3.50;99.90;;;;;;5033922;28;20063;-78
2022/12/05 07:57:14;;;;;;;26.00;11.07;;;3.50;99.90;;;;;;5053359;28;20076;-78
2022/12/05 07:59:40;;;;;;;28.77;11.13;;;3.40;99.90;;;;;;5051023;28;20478;-78
2022/12/05 08:02:07;;;;;;;28.85;10.68;;;3.40;99.90;;;;;;5036456;28;20093;-79
2022/12/05 08:04:32;;;;;;;24.30;10.30;;;3.40;99.90;;;;;;5036031;28;20095;-78
2022/12/05 08:06:58;;;;;;;27.25;11.10;;;3.40;99.90;;;;;;5053215;28;20076;-78
2022/12/05 08:09:24;;;;;;;26.83;11.52;;;3.40;99.90;;;;;;5032923;28;20043;-78
2022/12/05 08:11:50;;;;;;;22.27;10.48;;;3.50;99.90;;;;;;5037664;28;20037;-79
2022/12/05 08:14:16;;;;;;;21.67;10.23;;;3.50;99.90;;;;;;5030867;28;20033;-78
2022/12/05 08:16:41;;;;;;;32.35;12.82;;;3.40;99.90;;;;;;5020213;28;20036;-78
2022/12/05 08:19:10;;;;;;;34.60;12.02;;;3.40;99.90;;;;;;5043740;28;20033;-78
2022/12/05 08:21:35;;;;;;;30.70;11.80;;;3.40;99.90;;;;;;5051231;28;20077;-78
2022/12/05 08:24:04;;;;;;;21.75;11.50;;;3.40;99.90;;;;;;5035521;28;20037;-78
2022/12/05 08:26:31;;;;;;;27.08;11.43;;;3.40;99.90;;;;;;5036342;28;20021;-78
2022/12/05 08:29:00;;;;;;;27.15;12.35;;;3.40;99.90;;;;;;5053576;28;20052;-78
2022/12/05 08:31:28;;;;;;;26.70;12.18;;;3.40;99.90;;;;;;5037502;28;20132;-78
2022/12/05 08:33:57;;;;;;;24.88;11.55;;;3.40;99.90;;;;;;5036077;28;20033;-78
2022/12/05 08:36:23;;;;;;;20.95;10.55;;;3.40;99.90;;;;;;5052491;28;20025;-78
2022/12/05 08:38:48;;;;;;;24.90;11.02;;;3.40;99.90;;;;;;5033916;28;20040;-79
2022/12/05 08:41:16;;;;;;;27.20;12.63;;;3.40;99.90;;;;;;5042021;28;20067;-80
2022/12/05 08:43:43;;;;;;;28.98;11.70;;;3.40;99.90;;;;;;5036609;28;20037;-78
2022/12/05 08:46:09;;;;;;;26.10;11.02;;;3.40;99.90;;;;;;5035216;28;20033;-78
2022/12/05 08:48:36;;;;;;;27.55;12.00;;;3.30;99.90;;;;;;5034698;28;20041;-78
2022/12/05 08:51:08;;;;;;;27.02;11.75;;;3.30;99.90;;;;;;5049789;28;20033;-78
2022/12/05 08:53:36;;;;;;;27.52;11.38;;;3.30;99.90;;;;;;5044014;28;20065;-78
2022/12/05 08:56:03;;;;;;;29.45;11.93;;;3.30;99.90;;;;;;5042540;28;20102;-79
2022/12/05 08:58:29;;;;;;;23.13;10.57;;;3.30;99.90;;;;;;5026429;28;20048;-78
2022/12/05 09:01:03;;;;;;;27.55;11.35;;;3.30;99.90;;;;;;5025976;28;20041;-79
2022/12/05 09:03:29;;;;;;;28.33;12.07;;;3.30;99.90;;;;;;5020225;28;20107;-79
2022/12/05 09:06:23;;;;;;;27.75;11.48;;;3.30;99.90;;;;;;5008786;28;20537;-79
2022/12/05 09:08:53;;;;;;;27.08;11.32;;;3.30;99.90;;;;;;5021297;28;20658;-78
2022/12/05 09:11:22;;;;;;;22.92;10.52;;;3.30;99.90;;;;;;5015405;28;20063;-78
2022/12/05 09:13:50;;;;;;;25.77;11.15;;;3.30;99.90;;;;;;5027502;28;20038;-77
2022/12/05 09:16:18;;;;;;;24.42;11.30;;;3.30;99.90;;;;;;5041918;28;20398;-78
2022/12/05 09:18:45;;;;;;;23.67;11.27;;;3.30;99.90;;;;;;5047060;28;20021;-78
2022/12/05 09:21:16;;;;;;;23.42;10.07;;;3.30;99.90;;;;;;5029911;28;20448;-78
2022/12/05 09:23:43;;;;;;;27.77;10.82;;;3.30;99.90;;;;;;5029605;28;20037;-78
2022/12/05 09:26:14;;;;;;;24.75;11.07;;;3.30;99.90;;;;;;5043974;28;20108;-78
2022/12/05 09:28:41;;;;;;;37.70;10.93;;;3.40;99.90;;;;;;5027326;28;20775;-78
2022/12/05 09:31:12;;;;;;;24.00;11.63;;;3.40;99.90;;;;;;5018374;28;20382;-78
2022/12/05 09:33:38;;;;;;;27.08;10.77;;;3.40;99.90;;;;;;5046793;28;20534;-77
2022/12/05 09:36:13;;;;;;;27.00;10.77;;;3.30;99.90;;;;;;5032651;28;20037;-79
2022/12/05 09:38:38;;;;;;;24.92;11.40;;;3.40;99.90;;;;;;5020683;28;20028;-80
2022/12/05 09:42:03;;;;;;;23.88;11.07;;;3.40;99.90;;;;;;5028752;28;20040;-78
2022/12/05 09:44:25;;;;;;;26.92;10.40;;;3.40;99.90;;;;;;5041633;28;20712;-78
2022/12/05 09:46:57;;;;;;;27.65;11.25;;;3.40;99.90;;;;;;5035347;28;20037;-77
2022/12/05 09:49:24;;;;;;;22.42;9.77;;;3.40;99.90;;;;;;5024681;28;20029;-78
2022/12/05 09:51:52;;;;;;;24.20;9.45;;;3.30;99.90;;;;;;5028826;28;20469;-77
2022/12/05 09:54:19;;;;;;;33.33;11.48;;;3.40;99.90;;;;;;5041505;28;20029;-77
2022/12/05 09:56:49;;;;;;;64.53;11.57;;;3.40;99.90;;;;;;5029109;28;20053;-78
2022/12/05 09:59:15;;;;;;;23.50;9.48;;;3.40;99.90;;;;;;5041887;28;20697;-77
2022/12/05 10:01:53;;;;;;;24.75;10.35;;;3.30;99.90;;;;;;5027500;28;20120;-78
2022/12/05 10:04:37;;;;;;;25.40;10.90;;;3.30;99.90;;;;;;5040316;28;20032;-77
2022/12/05 10:07:35;;;;;;;19.30;9.88;;;3.30;99.90;;;;;;5038849;28;20550;-78
2022/12/05 10:10:38;;;;;;;18.60;9.38;;;3.40;99.90;;;;;;4949748;28;20055;-77
2022/12/05 10:13:22;;;;;;;22.80;9.88;;;3.40;99.90;;;;;;5025058;28;20477;-78
2022/12/05 10:15:53;;;;;;;19.40;9.13;;;3.40;99.90;;;;;;5034312;28;20040;-77
2022/12/05 10:18:32;;;;;;;22.38;10.23;;;3.40;99.90;;;;;;4987892;28;20397;-76
2022/12/05 10:21:09;;;;;;;19.13;9.02;;;3.40;99.90;;;;;;5030968;28;20470;-79
2022/12/05 10:23:49;;;;;;;26.75;9.65;;;3.40;99.90;;;;;;5027580;28;20033;-78
2022/12/05 10:26:16;;;;;;;21.45;9.18;;;3.40;99.90;;;;;;5023878;28;20033;-78
2022/12/05 10:29:01;;;;;;;21.73;10.15;;;3.30;99.90;;;;;;5013527;28;20029;-78
2022/12/05 10:31:35;;;;;;;27.75;9.60;;;3.40;99.90;;;;;;5048824;28;20029;-79
2022/12/05 10:34:27;;;;;;;89.85;10.98;;;3.40;99.90;;;;;;5023877;28;20037;-78
2022/12/05 10:37:04;;;;;;;23.02;8.70;;;3.40;99.90;;;;;;5015424;28;20045;-78
2022/12/05 10:39:30;;;;;;;42.13;9.25;;;3.50;99.90;;;;;;5045594;28;20049;-77
2022/12/05 10:41:56;;;;;;;16.48;8.25;;;3.50;99.90;;;;;;5030554;28;20311;-77
2022/12/05 10:44:22;;;;;;;18.25;8.02;;;3.50;99.90;;;;;;5010964;28;20073;-77
2022/12/05 10:46:47;;;;;;;16.98;7.53;;;3.60;99.90;;;;;;5009794;28;20129;-77
2022/12/05 10:49:13;;;;;;;38.97;9.35;;;3.60;99.90;;;;;;5040612;28;20033;-77
2022/12/05 10:51:39;;;;;;;13.70;7.10;;;3.60;99.90;;;;;;5032093;28;20033;-77
2022/12/05 10:54:16;;;;;;;18.90;7.13;;;3.60;99.90;;;;;;5048896;28;20033;-78
2022/12/05 10:56:50;;;;;;;16.85;6.35;;;3.60;99.90;;;;;;5048467;28;20106;-78
2022/12/05 10:59:22;;;;;;;12.38;7.20;;;3.70;99.90;;;;;;5036491;28;20064;-78
2022/12/05 11:01:54;;;;;;;13.18;7.10;;;3.70;99.90;;;;;;5029614;28;20523;-77
2022/12/05 11:04:25;;;;;;;14.00;6.75;;;3.80;99.90;;;;;;5030184;28;20100;-77
2022/12/05 11:07:03;;;;;;;12.82;6.53;;;3.70;99.90;;;;;;5030676;28;20037;-77
2022/12/05 11:09:37;;;;;;;12.18;6.07;;;3.80;99.90;;;;;;5026014;28;20503;-77
2022/12/05 11:12:05;;;;;;;13.77;7.32;;;3.80;99.90;;;;;;5046739;28;20142;-77
2022/12/05 11:14:34;;;;;;;12.93;7.00;;;3.80;99.90;;;;;;5027593;28;20478;-77
2022/12/05 11:17:03;;;;;;;14.95;6.85;;;3.80;99.90;;;;;;5024525;28;20037;-77
2022/12/05 11:19:36;;;;;;;12.98;7.22;;;3.80;99.90;;;;;;5027752;28;20032;-78
2022/12/05 11:22:04;;;;;;;13.13;7.18;;;3.90;99.90;;;;;;5040115;28;20041;-77
2022/12/05 11:24:34;;;;;;;13.35;7.07;;;3.90;99.90;;;;;;5044757;28;20037;-78
2022/12/05 11:27:22;;;;;;;15.50;7.40;;;3.80;99.90;;;;;;5029256;28;20033;-78
2022/12/05 11:29:58;;;;;;;13.65;6.47;;;3.90;99.90;;;;;;5023287;28;20029;-78
2022/12/05 11:32:27;;;;;;;17.85;7.88;;;3.90;99.90;;;;;;5026175;28;20100;-79
2022/12/05 11:35:11;;;;;;;14.15;7.22;;;3.80;99.90;;;;;;5044131;28;20036;-79
2022/12/05 11:37:49;;;;;;;18.88;7.88;;;3.80;99.90;;;;;;5037800;28;20064;-79
2022/12/05 11:40:36;;;;;;;15.43;7.90;;;3.70;99.90;;;;;;5047393;28;20024;-79
2022/12/05 11:43:20;;;;;;;19.85;8.73;;;3.70;99.90;;;;;;5013122;28;20124;-78
2022/12/05 11:46:23;;;;;;;17.52;7.93;;;3.70;99.90;;;;;;5044377;28;20029;-79
2022/12/05 11:49:08;;;;;;;16.30;8.07;;;3.70;99.90;;;;;;5042848;28;20040;-79
2022/12/05 11:51:52;;;;;;;17.42;8.73;;;3.60;99.90;;;;;;5045111;28;20085;-77
2022/12/05 11:54:30;;;;;;;17.52;8.70;;;3.50;99.90;;;;;;5042323;28;20112;-78
2022/12/05 11:57:22;;;;;;;19.52;8.88;;;3.50;99.90;;;;;;5025905;28;20033;-78
2022/12/05 11:59:57;;;;;;;17.85;8.50;;;3.60;99.90;;;;;;5030547;28;20512;-79
2022/12/05 12:03:17;;;;;;;18.73;8.83;;;3.50;99.90;;;;;;5021210;28;20029;-78
2022/12/05 12:06:10;;;;;;;15.95;7.45;;;3.50;99.90;;;;;;4987191;28;20891;-78
2022/12/05 12:08:57;;;;;;;19.10;8.48;;;3.50;99.90;;;;;;5028797;28;20041;-78
2022/12/05 12:11:43;;;;;;;16.40;8.02;;;3.40;99.90;;;;;;5038258;28;20040;-78
2022/12/05 12:14:26;;;;;;;18.20;8.30;;;3.50;99.90;;;;;;5047584;28;20056;-78
2022/12/05 12:16:51;;;;;;;18.25;7.07;;;3.40;99.90;;;;;;5036200;28;20432;-78
2022/12/05 12:19:38;;;;;;;24.27;10.27;;;3.40;99.90;;;;;;5049462;28;20029;-77
2022/12/05 12:22:19;;;;;;;18.35;8.90;;;3.40;99.90;;;;;;5050097;28;20028;-78
2022/12/05 12:24:50;;;;;;;17.10;8.52;;;3.30;99.90;;;;;;5032027;28;20094;-78
2022/12/05 12:27:45;;;;;;;17.08;8.50;;;3.40;99.90;;;;;;5034252;28;20047;-77
2022/12/05 12:30:23;;;;;;;20.95;9.32;;;3.40;99.90;;;;;;5045175;28;20054;-78
2022/12/05 12:33:11;;;;;;;22.25;9.55;;;3.40;99.90;;;;;;5054155;28;20032;-79
2022/12/05 12:36:07;;;;;;;21.15;8.88;;;3.30;99.90;;;;;;5008152;28;20029;-78
2022/12/05 12:38:59;;;;;;;18.95;8.60;;;3.30;99.90;;;;;;5050216;28;20025;-77
2022/12/05 12:41:59;;;;;;;18.92;9.07;;;3.30;99.90;;;;;;5050083;28;20036;-78
2022/12/05 12:44:33;;;;;;;20.98;8.88;;;3.30;99.90;;;;;;5043877;28;20484;-79
2022/12/05 12:47:02;;;;;;;18.87;8.53;;;3.30;99.90;;;;;;5045175;28;20091;-78
2022/12/05 12:49:44;;;;;;;16.65;8.35;;;3.30;99.90;;;;;;5044844;28;20029;-78
2022/12/05 12:52:23;;;;;;;19.90;8.85;;;3.30;99.90;;;;;;5015232;28;20033;-78
2022/12/05 12:55:17;;;;;;;16.10;7.82;;;3.20;99.90;;;;;;5050377;28;20029;-79
2022/12/05 12:57:57;;;;;;;17.35;8.40;;;3.30;99.90;;;;;;5051722;28;20048;-78
2022/12/05 13:00:30;;;;;;;13.63;7.97;;;3.20;99.90;;;;;;5054742;28;20035;-78
2022/12/05 13:02:59;;;;;;;17.80;8.38;;;3.20;99.90;;;;;;5051014;28;20036;-78
2022/12/05 13:05:41;;;;;;;20.00;8.90;;;3.30;99.90;;;;;;5050675;28;20048;-77
2022/12/05 13:08:27;;;;;;;37.92;19.60;;;3.20;99.90;;;;;;5047773;28;20025;-79
2022/12/05 13:10:54;;;;;;;28.27;14.25;;;3.20;99.90;;;;;;5053204;28;20097;-78
2022/12/05 13:13:33;;;;;;;19.25;9.82;;;3.20;99.90;;;;;;5057409;28;20104;-78